createdAt,value
2022-08-26T00:00:54.444Z,39.20
2022-08-26T00:03:23.401Z,39.47
2022-08-26T00:05:52.256Z,40.07
2022-08-26T00:08:22.038Z,41.13
2022-08-26T00:10:50.849Z,39.30
2022-08-26T00:13:19.719Z,41.57
2022-08-26T00:15:51.481Z,41.67
2022-08-26T00:18:22.178Z,42.80
2022-08-26T00:20:52.162Z,38.73
2022-08-26T00:23:20.954Z,41.90
2022-08-26T00:25:56.768Z,41.50
2022-08-26T00:28:25.876Z,41.47
2022-08-26T00:30:56.018Z,41.87
2022-08-26T00:33:24.571Z,41.07
2022-08-26T00:35:52.809Z,42.17
2022-08-26T00:38:23.682Z,43.03
2022-08-26T00:40:59.470Z,40.63
2022-08-26T00:43:28.828Z,42.87
2022-08-26T00:46:05.938Z,43.27
2022-08-26T00:48:38.856Z,45.00
2022-08-26T00:51:14.262Z,42.23
2022-08-26T00:53:54.629Z,42.53
2022-08-26T00:56:27.592Z,43.97
2022-08-26T00:58:59.900Z,41.17
2022-08-26T01:01:30.777Z,42.57
2022-08-26T01:03:59.949Z,40.50
2022-08-26T01:06:29.859Z,40.60
2022-08-26T01:08:58.826Z,40.57
2022-08-26T01:11:27.794Z,42.57
2022-08-26T01:13:58.989Z,42.03
2022-08-26T01:16:32.119Z,43.00
2022-08-26T01:19:04.941Z,42.10
2022-08-26T01:21:41.297Z,43.47
2022-08-26T01:24:13.867Z,43.13
2022-08-26T01:26:44.835Z,40.37
2022-08-26T01:29:16.947Z,43.30
2022-08-26T01:31:48.402Z,43.20
2022-08-26T01:34:22.682Z,44.30
2022-08-26T01:36:52.269Z,44.50
2022-08-26T01:39:23.120Z,44.33
2022-08-26T01:41:54.537Z,42.43
2022-08-26T01:44:27.865Z,44.33
2022-08-26T01:46:58.812Z,44.13
2022-08-26T01:49:31.971Z,44.77
2022-08-26T01:52:05.770Z,44.93
2022-08-26T01:54:36.935Z,42.33
2022-08-26T01:57:07.417Z,43.20
2022-08-26T01:59:36.231Z,43.60
2022-08-26T02:02:04.645Z,44.20
2022-08-26T02:04:37.513Z,43.53
2022-08-26T02:07:10.203Z,44.37
2022-08-26T02:09:42.876Z,44.10
2022-08-26T02:12:13.318Z,44.30
2022-08-26T02:14:46.877Z,45.87
2022-08-26T02:17:15.714Z,43.63
2022-08-26T02:19:48.799Z,45.53
2022-08-26T02:22:21.191Z,43.33
2022-08-26T02:24:53.260Z,50.07
2022-08-26T02:27:24.837Z,44.07
2022-08-26T02:29:57.507Z,41.57
2022-08-26T02:32:26.022Z,43.53
2022-08-26T02:34:55.396Z,43.53
2022-08-26T02:37:24.159Z,42.67
2022-08-26T02:39:55.262Z,45.77
2022-08-26T02:42:23.690Z,44.63
2022-08-26T02:44:53.347Z,42.67
2022-08-26T02:47:21.606Z,42.63
2022-08-26T02:49:53.324Z,43.93
2022-08-26T02:52:24.137Z,43.17
2022-08-26T02:54:54.195Z,44.00
2022-08-26T02:57:23.807Z,40.93
2022-08-26T02:59:52.698Z,43.83
2022-08-26T03:02:23.342Z,41.63
2022-08-26T03:04:57.714Z,42.60
2022-08-26T03:07:30.565Z,44.20
2022-08-26T03:10:00.870Z,45.17
2022-08-26T03:12:29.167Z,43.27
2022-08-26T03:14:58.063Z,43.00
2022-08-26T03:17:27.029Z,43.10
2022-08-26T03:19:57.243Z,43.43
2022-08-26T03:22:28.227Z,43.93
2022-08-26T03:24:56.716Z,43.47
2022-08-26T03:27:26.519Z,46.63
2022-08-26T03:30:15.783Z,44.40
2022-08-26T03:32:48.035Z,43.07
2022-08-26T03:35:16.778Z,42.23
2022-08-26T03:37:45.037Z,45.70
2022-08-26T03:40:13.807Z,42.93
2022-08-26T03:42:45.453Z,43.37
2022-08-26T03:45:14.579Z,43.37
2022-08-26T03:47:45.906Z,45.47
2022-08-26T03:50:22.842Z,44.03
2022-08-26T03:52:55.915Z,41.27
2022-08-26T03:55:31.928Z,47.70
2022-08-26T03:58:02.693Z,43.67
2022-08-26T04:00:31.766Z,41.37
2022-08-26T04:03:05.178Z,42.63
2022-08-26T04:05:38.363Z,41.27
2022-08-26T04:08:07.055Z,40.90
2022-08-26T04:10:38.450Z,40.00
2022-08-26T04:13:08.368Z,40.70
2022-08-26T04:15:36.899Z,41.07
2022-08-26T04:18:05.276Z,41.73
2022-08-26T04:20:33.465Z,40.10
2022-08-26T04:23:01.713Z,46.80
2022-08-26T04:25:33.146Z,39.93
2022-08-26T04:28:01.439Z,39.90
2022-08-26T04:30:31.570Z,40.47
2022-08-26T04:32:59.907Z,40.67
2022-08-26T04:35:28.135Z,39.43
2022-08-26T04:37:59.046Z,44.07
2022-08-26T04:40:27.737Z,40.67
2022-08-26T04:42:56.443Z,44.60
2022-08-26T04:45:25.321Z,49.93
2022-08-26T04:47:56.456Z,53.20
2022-08-26T04:50:26.559Z,47.30
2022-08-26T04:52:56.464Z,47.73
2022-08-26T04:55:39.763Z,44.80
2022-08-26T04:58:10.972Z,43.53
2022-08-26T05:00:41.587Z,47.37
2022-08-26T05:03:11.862Z,49.57
2022-08-26T05:05:44.538Z,51.13
2022-08-26T05:08:14.329Z,49.63
2022-08-26T05:10:46.031Z,44.73
2022-08-26T05:13:15.894Z,45.10
2022-08-26T05:15:45.089Z,44.03
2022-08-26T05:18:19.943Z,45.03
2022-08-26T05:20:50.292Z,45.47
2022-08-26T05:23:20.729Z,42.97
2022-08-26T05:25:50.302Z,42.93
2022-08-26T05:28:22.048Z,42.30
2022-08-26T05:30:51.256Z,42.43
2022-08-26T05:33:21.449Z,43.73
2022-08-26T05:35:50.509Z,44.13
2022-08-26T05:38:21.505Z,41.07
2022-08-26T05:40:52.702Z,44.93
2022-08-26T05:43:23.828Z,44.83
2022-08-26T05:45:52.511Z,42.10
2022-08-26T05:48:24.189Z,41.77
2022-08-26T05:50:54.251Z,42.70
2022-08-26T05:53:24.018Z,42.10
2022-08-26T05:55:55.538Z,44.10
2022-08-26T05:58:24.904Z,41.50
2022-08-26T06:01:00.294Z,43.37
2022-08-26T06:03:31.105Z,44.90
2022-08-26T06:06:00.103Z,43.77
2022-08-26T06:08:28.297Z,42.47
2022-08-26T06:11:00.967Z,42.13
2022-08-26T06:13:32.021Z,41.07
2022-08-26T06:16:01.636Z,42.37
2022-08-26T06:18:35.502Z,42.30
2022-08-26T06:21:14.252Z,42.70
2022-08-26T06:24:01.820Z,41.70
2022-08-26T06:26:30.774Z,42.10
2022-08-26T06:28:59.373Z,40.90
2022-08-26T06:31:34.317Z,41.17
2022-08-26T06:34:10.514Z,41.70
2022-08-26T06:36:40.449Z,41.80
2022-08-26T06:39:19.064Z,40.13
2022-08-26T06:41:48.867Z,42.47
2022-08-26T06:44:18.838Z,40.93
2022-08-26T06:46:50.395Z,41.40
2022-08-26T06:49:26.974Z,41.57
2022-08-26T06:51:58.447Z,39.17
2022-08-26T06:54:27.466Z,42.60
2022-08-26T06:56:57.217Z,40.47
2022-08-26T06:59:25.960Z,39.13
2022-08-26T07:01:55.052Z,39.83
2022-08-26T07:04:25.159Z,37.97
2022-08-26T07:06:58.693Z,42.93
2022-08-26T07:09:30.449Z,37.17
2022-08-26T07:11:58.883Z,38.17
2022-08-26T07:14:27.473Z,38.50
2022-08-26T07:16:56.072Z,39.43
2022-08-26T07:19:29.982Z,39.07
2022-08-26T07:22:02.095Z,36.43
2022-08-26T07:24:31.208Z,37.03
2022-08-26T07:27:02.785Z,37.43
2022-08-26T07:29:31.538Z,38.30
2022-08-26T07:31:59.980Z,40.10
2022-08-26T07:34:29.760Z,39.23
2022-08-26T07:36:58.838Z,39.57
2022-08-26T07:39:27.988Z,39.63
2022-08-26T07:41:56.461Z,41.37
2022-08-26T07:44:27.275Z,39.00
2022-08-26T07:46:55.835Z,39.40
2022-08-26T07:49:27.104Z,38.73
2022-08-26T07:51:58.081Z,39.60
2022-08-26T07:54:26.742Z,38.73
2022-08-26T07:56:56.227Z,38.00
2022-08-26T07:59:27.565Z,37.07
2022-08-26T08:01:59.344Z,37.77
2022-08-26T08:04:29.565Z,38.83
2022-08-26T08:06:59.450Z,34.73
2022-08-26T08:09:28.842Z,38.17
2022-08-26T08:12:00.608Z,34.90
2022-08-26T08:14:28.956Z,36.33
2022-08-26T08:17:00.670Z,38.03
2022-08-26T08:19:36.835Z,35.60
2022-08-26T08:22:17.130Z,36.47
2022-08-26T08:24:46.126Z,34.27
2022-08-26T08:27:23.518Z,35.17
2022-08-26T08:29:55.733Z,36.33
2022-08-26T08:32:25.071Z,33.23
2022-08-26T08:34:54.407Z,34.97
2022-08-26T08:37:24.442Z,33.87
2022-08-26T08:39:52.913Z,32.03
2022-08-26T08:42:42.423Z,33.10
2022-08-26T08:45:15.390Z,32.10
2022-08-26T08:47:50.388Z,30.47
2022-08-26T08:50:25.849Z,30.97
2022-08-26T08:53:05.778Z,31.00
2022-08-26T08:55:50.059Z,31.20
2022-08-26T08:58:21.338Z,31.70
2022-08-26T09:00:56.053Z,29.23
2022-08-26T09:03:39.611Z,29.70
2022-08-26T09:06:17.062Z,29.30
2022-08-26T09:08:50.271Z,33.50
2022-08-26T09:11:20.958Z,29.17
2022-08-26T09:13:57.918Z,29.03
2022-08-26T09:16:46.244Z,29.07
2022-08-26T09:19:31.922Z,29.37
2022-08-26T09:22:07.029Z,30.60
2022-08-26T09:24:48.376Z,30.27
2022-08-26T09:27:50.536Z,28.77
2022-08-26T09:30:35.001Z,30.67
2022-08-26T09:33:10.869Z,28.80
2022-08-26T09:35:42.025Z,30.20
2022-08-26T09:38:27.239Z,31.07
2022-08-26T09:41:01.809Z,32.60
2022-08-26T09:43:35.578Z,30.00
2022-08-26T09:46:19.807Z,30.40
2022-08-26T09:49:54.010Z,32.87
2022-08-26T09:52:29.592Z,31.33
2022-08-26T09:55:14.735Z,31.00
2022-08-26T09:58:07.996Z,30.27
2022-08-26T10:00:39.654Z,31.17
2022-08-26T10:03:17.282Z,31.73
2022-08-26T10:06:02.469Z,30.93
2022-08-26T10:08:38.368Z,31.83
2022-08-26T10:11:24.623Z,30.17
2022-08-26T10:14:00.064Z,30.50
2022-08-26T10:16:37.832Z,30.13
2022-08-26T10:19:11.456Z,30.20
2022-08-26T10:22:16.512Z,32.03
2022-08-26T10:24:54.938Z,32.03
2022-08-26T10:28:21.321Z,30.83
2022-08-26T10:31:40.733Z,29.57
2022-08-26T10:35:05.503Z,30.80
2022-08-26T10:37:46.850Z,31.63
2022-08-26T10:41:09.901Z,27.53
2022-08-26T10:47:39.314Z,30.20
2022-08-26T10:54:10.401Z,32.07
2022-08-26T10:57:06.224Z,31.30
2022-08-26T11:00:24.068Z,30.27
2022-08-26T11:03:21.879Z,30.47
2022-08-26T11:06:23.058Z,25.40
2022-08-26T11:08:55.295Z,24.87
2022-08-26T11:11:56.894Z,24.33
2022-08-26T11:14:53.339Z,25.50
2022-08-26T11:18:11.458Z,25.03
2022-08-26T11:21:20.209Z,23.70
2022-08-26T11:23:55.164Z,22.03
2022-08-26T11:26:43.251Z,21.30
2022-08-26T11:30:03.053Z,22.87
2022-08-26T11:32:53.424Z,22.60
2022-08-26T11:36:14.831Z,23.40
2022-08-26T11:38:45.416Z,23.00
2022-08-26T11:41:23.284Z,22.70
2022-08-26T11:43:58.647Z,22.73
2022-08-26T11:46:38.304Z,23.33
2022-08-26T11:49:13.177Z,24.87
2022-08-26T11:51:55.721Z,21.80
2022-08-26T11:54:37.800Z,24.57
2022-08-26T11:57:27.447Z,24.87
2022-08-26T12:00:03.956Z,22.50
2022-08-26T12:02:44.809Z,23.63
2022-08-26T12:05:18.412Z,21.77
2022-08-26T12:07:57.415Z,21.73
2022-08-26T12:10:38.033Z,21.10
2022-08-26T12:13:26.251Z,21.17
2022-08-26T12:16:03.683Z,23.10
2022-08-26T12:18:36.197Z,21.53
2022-08-26T12:21:14.515Z,19.77
2022-08-26T12:23:50.039Z,19.03
2022-08-26T12:26:28.253Z,20.13
2022-08-26T12:29:19.853Z,19.50
2022-08-26T12:31:50.227Z,19.70
2022-08-26T12:34:19.711Z,18.53
2022-08-26T12:36:55.310Z,20.83
2022-08-26T12:39:31.564Z,20.57
2022-08-26T12:42:01.944Z,20.20
2022-08-26T12:44:38.529Z,19.67
2022-08-26T12:47:13.792Z,19.50
2022-08-26T12:49:45.178Z,21.40
2022-08-26T12:52:31.697Z,20.97
2022-08-26T12:55:03.180Z,20.07
2022-08-26T12:57:35.314Z,20.13
2022-08-26T13:00:31.978Z,21.97
2022-08-26T13:03:04.663Z,21.60
2022-08-26T13:05:35.669Z,19.67
2022-08-26T13:08:16.339Z,20.13
2022-08-26T13:10:47.011Z,20.30
2022-08-26T13:13:19.952Z,21.85
2022-08-26T13:15:50.304Z,21.65
2022-08-26T13:18:22.176Z,20.15
2022-08-26T13:20:50.512Z,20.35
2022-08-26T13:23:27.206Z,21.23
2022-08-26T13:25:55.902Z,22.52
2022-08-26T13:28:24.480Z,20.70
2022-08-26T13:30:54.604Z,22.33
2022-08-26T13:33:22.962Z,21.73
2022-08-26T13:35:58.394Z,21.92
2022-08-26T13:38:33.693Z,19.33
2022-08-26T13:41:03.719Z,20.60
2022-08-26T13:43:32.442Z,21.17
2022-08-26T13:46:02.783Z,21.00
2022-08-26T13:48:31.960Z,20.87
2022-08-26T13:51:02.763Z,20.40
2022-08-26T13:53:36.335Z,21.03
2022-08-26T13:56:10.802Z,21.03
2022-08-26T13:58:39.552Z,21.70
2022-08-26T14:01:09.932Z,22.37
2022-08-26T14:03:38.565Z,22.50
2022-08-26T14:06:07.228Z,23.20
2022-08-26T14:08:36.959Z,21.60
2022-08-26T14:11:05.500Z,22.80
2022-08-26T14:13:34.020Z,21.97
2022-08-26T14:16:10.207Z,21.97
2022-08-26T14:18:43.042Z,22.60
2022-08-26T14:21:14.915Z,21.70
2022-08-26T14:23:43.248Z,23.17
2022-08-26T14:26:16.807Z,21.10
2022-08-26T14:28:57.366Z,21.53
2022-08-26T14:31:27.103Z,20.93
2022-08-26T14:33:59.074Z,20.63
2022-08-26T14:36:32.371Z,21.73
2022-08-26T14:39:07.503Z,21.17
2022-08-26T14:41:44.081Z,20.93
2022-08-26T14:44:15.213Z,20.90
2022-08-26T14:46:46.941Z,21.17
2022-08-26T14:49:19.682Z,20.27
2022-08-26T14:51:48.494Z,20.53
2022-08-26T14:54:18.524Z,21.23
2022-08-26T14:56:49.669Z,21.33
2022-08-26T14:59:20.860Z,21.10
2022-08-26T15:01:49.372Z,19.87
2022-08-26T15:04:19.848Z,20.60
2022-08-26T15:06:48.739Z,21.10
2022-08-26T15:09:17.677Z,20.90
2022-08-26T15:11:48.139Z,20.53
2022-08-26T15:14:20.422Z,21.80
2022-08-26T15:16:52.778Z,21.10
2022-08-26T15:19:24.002Z,20.63
2022-08-26T15:21:52.485Z,20.43
2022-08-26T15:24:22.982Z,20.07
2022-08-26T15:26:52.110Z,19.77
2022-08-26T15:29:21.662Z,20.87
2022-08-26T15:31:49.886Z,21.20
2022-08-26T15:34:20.609Z,20.20
2022-08-26T15:36:50.429Z,22.07
2022-08-26T15:39:19.035Z,21.50
2022-08-26T15:41:47.905Z,20.17
2022-08-26T15:44:19.797Z,20.70
2022-08-26T15:46:49.958Z,20.60
2022-08-26T15:49:20.220Z,20.80
2022-08-26T15:51:52.531Z,20.80
2022-08-26T15:54:24.227Z,21.30
2022-08-26T15:56:53.919Z,18.90
2022-08-26T15:59:23.463Z,19.63
2022-08-26T16:01:52.384Z,18.80
2022-08-26T16:04:21.130Z,19.30
2022-08-26T16:06:52.279Z,19.27
2022-08-26T16:09:24.203Z,18.60
2022-08-26T16:11:52.893Z,18.80
2022-08-26T16:14:21.640Z,19.00
2022-08-26T16:16:50.571Z,19.57
2022-08-26T16:19:19.231Z,20.37
2022-08-26T16:21:48.204Z,20.03
2022-08-26T16:24:17.974Z,20.50
2022-08-26T16:26:46.342Z,19.83
2022-08-26T16:29:17.060Z,20.13
2022-08-26T16:31:45.408Z,18.13
2022-08-26T16:34:13.809Z,19.70
2022-08-26T16:36:42.057Z,19.00
2022-08-26T16:39:10.898Z,19.73
2022-08-26T16:41:42.941Z,20.77
2022-08-26T16:44:12.130Z,21.23
2022-08-26T16:46:42.955Z,20.07
2022-08-26T16:49:15.831Z,21.63
2022-08-26T16:51:44.343Z,21.47
2022-08-26T16:54:13.398Z,21.97
2022-08-26T16:56:44.254Z,22.37
2022-08-26T16:59:15.445Z,25.40
2022-08-26T17:01:43.815Z,21.87
2022-08-26T17:04:12.201Z,23.03
2022-08-26T17:06:43.610Z,22.83
2022-08-26T17:09:12.080Z,21.60
2022-08-26T17:11:41.406Z,22.10
2022-08-26T17:14:11.529Z,21.67
2022-08-26T17:16:40.234Z,22.30
2022-08-26T17:19:08.616Z,22.97
2022-08-26T17:21:39.208Z,23.40
2022-08-26T17:24:08.033Z,27.73
2022-08-26T17:26:38.005Z,25.13
2022-08-26T17:29:12.762Z,28.23
2022-08-26T17:31:43.516Z,24.87
2022-08-26T17:34:13.094Z,22.33
2022-08-26T17:36:41.929Z,22.63
2022-08-26T17:39:13.517Z,23.43
2022-08-26T17:41:42.666Z,22.63
2022-08-26T17:44:12.862Z,22.33
2022-08-26T17:46:41.515Z,24.17
2022-08-26T17:49:16.524Z,23.00
2022-08-26T17:55:09.694Z,20.80
2022-08-26T17:57:47.759Z,22.30
2022-08-26T18:00:44.671Z,19.63
2022-08-26T18:03:16.365Z,19.97
2022-08-26T18:05:54.577Z,19.90
2022-08-26T18:08:58.866Z,20.90
2022-08-26T18:11:53.084Z,21.23
2022-08-26T18:14:23.674Z,20.87
2022-08-26T18:16:54.287Z,28.57
2022-08-26T18:19:22.722Z,24.40
2022-08-26T18:21:52.750Z,20.70
2022-08-26T18:24:21.275Z,22.37
2022-08-26T18:26:51.329Z,23.50
2022-08-26T18:29:21.969Z,23.40
2022-08-26T18:31:50.616Z,22.47
2022-08-26T18:34:24.962Z,23.03
2022-08-26T18:39:47.613Z,23.17
2022-08-26T18:42:24.270Z,22.57
2022-08-26T18:44:52.854Z,21.60
2022-08-26T18:47:59.821Z,23.03
2022-08-26T18:50:50.140Z,24.07
2022-08-26T18:53:27.581Z,28.43
2022-08-26T18:55:56.309Z,22.40
2022-08-26T18:58:35.604Z,22.83
2022-08-26T19:01:18.472Z,22.90
2022-08-26T19:03:52.777Z,26.83
2022-08-26T19:06:27.635Z,23.90
2022-08-26T19:09:14.619Z,23.10
2022-08-26T19:11:43.688Z,26.43
2022-08-26T19:14:14.429Z,23.60
2022-08-26T19:16:45.449Z,22.60
2022-08-26T19:19:15.323Z,37.23
2022-08-26T19:21:45.299Z,86.77
2022-08-26T19:24:17.638Z,27.50
2022-08-26T19:26:58.442Z,22.93
2022-08-26T19:29:31.479Z,22.03
2022-08-26T19:32:02.086Z,25.00
2022-08-26T19:34:31.670Z,24.20
2022-08-26T19:37:02.515Z,22.53
2022-08-26T19:39:31.594Z,21.77
2022-08-26T19:42:00.886Z,22.07
2022-08-26T19:44:46.784Z,25.50
2022-08-26T19:47:17.336Z,24.00
2022-08-26T19:49:46.194Z,21.00
2022-08-26T19:52:16.332Z,20.63
2022-08-26T19:54:44.840Z,22.40
2022-08-26T19:57:14.762Z,23.03
2022-08-26T19:59:43.399Z,22.23
2022-08-26T20:02:15.131Z,22.60
2022-08-26T20:04:47.542Z,23.87
2022-08-26T20:13:22.840Z,23.80
2022-08-26T20:15:51.297Z,23.07
2022-08-26T20:18:54.432Z,25.70
2022-08-26T20:21:29.925Z,27.93
2022-08-26T20:24:03.651Z,27.60
2022-08-26T20:26:35.129Z,24.50
2022-08-26T20:29:07.980Z,24.13
2022-08-26T20:31:40.092Z,25.87
2022-08-26T20:34:15.850Z,23.33
2022-08-26T20:36:46.553Z,23.17
2022-08-26T20:39:18.989Z,28.57
2022-08-26T20:41:48.069Z,24.60
2022-08-26T20:44:19.121Z,24.20
2022-08-26T20:46:51.582Z,25.43
2022-08-26T20:49:22.622Z,23.83
2022-08-26T20:51:54.485Z,24.37
2022-08-26T20:54:31.202Z,38.60
2022-08-26T20:57:00.702Z,24.73
2022-08-26T21:00:00.595Z,25.23
2022-08-26T21:02:43.101Z,24.30
2022-08-26T21:05:11.971Z,24.70
2022-08-26T21:07:41.283Z,27.00
2022-08-26T21:10:20.708Z,30.00
2022-08-26T21:12:55.003Z,26.17
2022-08-26T21:15:24.772Z,26.00
2022-08-26T21:17:57.816Z,28.13
2022-08-26T21:20:27.633Z,26.70
2022-08-26T21:22:56.228Z,24.90
2022-08-26T21:25:26.702Z,28.93
2022-08-26T21:27:55.764Z,33.67
2022-08-26T21:30:24.711Z,26.53
2022-08-26T21:32:56.150Z,24.93
2022-08-26T21:35:26.335Z,24.53
2022-08-26T21:37:54.792Z,26.40
2022-08-26T21:40:25.495Z,26.23
2022-08-26T21:42:54.008Z,25.43
2022-08-26T21:45:22.499Z,29.23
2022-08-26T21:47:51.314Z,25.63
2022-08-26T21:50:19.963Z,28.00
2022-08-26T21:52:49.683Z,26.57
2022-08-26T21:55:18.267Z,26.77
2022-08-26T21:57:48.988Z,25.80
2022-08-26T22:00:19.529Z,25.63
2022-08-26T22:02:50.395Z,26.53
2022-08-26T22:05:21.072Z,26.17
2022-08-26T22:07:51.909Z,27.50
2022-08-26T22:10:20.496Z,27.30
2022-08-26T22:12:48.888Z,25.53
2022-08-26T22:15:19.808Z,26.30
2022-08-26T22:17:48.151Z,25.77
2022-08-26T22:20:16.885Z,24.90
2022-08-26T22:22:45.155Z,27.90
2022-08-26T22:25:17.559Z,26.33
2022-08-26T22:27:45.997Z,27.33
2022-08-26T22:30:14.769Z,27.07
2022-08-26T22:32:44.015Z,26.53
2022-08-26T22:35:28.956Z,26.30
2022-08-26T22:37:58.342Z,26.37
2022-08-26T22:40:30.796Z,26.70
2022-08-26T22:43:00.290Z,26.83
2022-08-26T22:45:29.287Z,27.13
2022-08-26T22:47:57.619Z,27.37
2022-08-26T22:50:26.110Z,26.67
2022-08-26T22:52:54.357Z,28.10
2022-08-26T22:55:22.654Z,26.97
2022-08-26T22:57:52.385Z,25.83
2022-08-26T23:00:20.729Z,26.10
2022-08-26T23:03:01.010Z,27.90
2022-08-26T23:05:29.712Z,26.90
2022-08-26T23:07:58.244Z,26.20
2022-08-26T23:10:27.035Z,25.90
2022-08-26T23:12:57.576Z,26.07
2022-08-26T23:15:26.440Z,25.00
2022-08-26T23:17:58.947Z,25.73
2022-08-26T23:20:42.655Z,25.50
2022-08-26T23:23:11.028Z,23.73
2022-08-26T23:25:39.234Z,23.93
2022-08-26T23:28:12.548Z,27.13
2022-08-26T23:30:41.018Z,26.30
2022-08-26T23:33:09.193Z,22.97
2022-08-26T23:35:36.597Z,24.70
2022-08-26T23:38:11.704Z,25.53
2022-08-26T23:40:43.024Z,27.53
2022-08-26T23:43:20.510Z,27.70
2022-08-26T23:45:49.184Z,26.63
2022-08-26T23:48:20.922Z,27.30
2022-08-26T23:51:06.572Z,26.13
2022-08-26T23:53:34.927Z,26.00
2022-08-26T23:56:03.277Z,25.63
2022-08-26T23:58:35.426Z,24.93
